sensor_id;sensor_type;location;lat;lon;timestamp;pressure;altitude;pressure_sealevel;temperature;humidity
35577;BME280;21680;52.400;16.920;2023-05-15T00:01:11;100328.83;;;15.76;48.07
35577;BME280;21680;52.400;16.920;2023-05-15T00:03:38;100326.79;;;15.76;48.02
35577;BME280;21680;52.400;16.920;2023-05-15T00:06:04;100321.41;;;15.76;47.97
35577;BME280;21680;52.400;16.920;2023-05-15T00:08:30;100315.38;;;15.75;48.13
35577;BME280;21680;52.400;16.920;2023-05-15T00:10:55;100313.91;;;15.75;48.14
35577;BME280;21680;52.400;16.920;2023-05-15T00:13:21;100310.48;;;15.75;48.28
35577;BME280;21680;52.400;16.920;2023-05-15T00:15:46;100306.58;;;15.74;48.27
35577;BME280;21680;52.400;16.920;2023-05-15T00:18:12;100304.59;;;15.72;48.27
35577;BME280;21680;52.400;16.920;2023-05-15T00:20:39;100300.52;;;15.68;48.25
35577;BME280;21680;52.400;16.920;2023-05-15T00:23:04;100295.61;;;15.66;48.24
35577;BME280;21680;52.400;16.920;2023-05-15T00:25:30;100287.04;;;15.65;48.39
35577;BME280;21680;52.400;16.920;2023-05-15T00:27:55;100287.65;;;15.67;48.43
35577;BME280;21680;52.400;16.920;2023-05-15T00:30:20;100283.53;;;15.67;48.50
35577;BME280;21680;52.400;16.920;2023-05-15T00:32:47;100280.45;;;15.67;48.47
35577;BME280;21680;52.400;16.920;2023-05-15T00:35:12;100275.84;;;15.66;48.48
35577;BME280;21680;52.400;16.920;2023-05-15T00:37:37;100273.71;;;15.65;48.60
35577;BME280;21680;52.400;16.920;2023-05-15T00:40:03;100266.05;;;15.64;48.63
35577;BME280;21680;52.400;16.920;2023-05-15T00:42:29;100260.90;;;15.63;48.54
35577;BME280;21680;52.400;16.920;2023-05-15T00:44:55;100253.98;;;15.64;48.60
35577;BME280;21680;52.400;16.920;2023-05-15T00:47:21;100253.20;;;15.65;48.55
35577;BME280;21680;52.400;16.920;2023-05-15T00:49:48;100252.52;;;15.65;48.57
35577;BME280;21680;52.400;16.920;2023-05-15T00:52:14;100258.39;;;15.65;48.67
35577;BME280;21680;52.400;16.920;2023-05-15T00:54:39;100265.31;;;15.67;48.67
35577;BME280;21680;52.400;16.920;2023-05-15T00:57:06;100267.97;;;15.68;48.66
35577;BME280;21680;52.400;16.920;2023-05-15T00:59:32;100262.69;;;15.68;48.67
35577;BME280;21680;52.400;16.920;2023-05-15T01:01:57;100254.71;;;15.66;48.78
35577;BME280;21680;52.400;16.920;2023-05-15T01:04:23;100262.46;;;15.61;48.75
35577;BME280;21680;52.400;16.920;2023-05-15T01:06:48;100271.85;;;15.53;48.92
35577;BME280;21680;52.400;16.920;2023-05-15T01:09:16;100272.04;;;15.45;49.11
35577;BME280;21680;52.400;16.920;2023-05-15T01:11:43;100275.31;;;15.42;49.35
35577;BME280;21680;52.400;16.920;2023-05-15T01:14:10;100284.23;;;15.41;49.59
35577;BME280;21680;52.400;16.920;2023-05-15T01:16:36;100292.70;;;15.41;49.63
35577;BME280;21680;52.400;16.920;2023-05-15T01:19:03;100302.97;;;15.41;49.90
35577;BME280;21680;52.400;16.920;2023-05-15T01:21:40;100318.74;;;15.39;50.05
35577;BME280;21680;52.400;16.920;2023-05-15T01:24:38;100325.63;;;15.36;50.33
35577;BME280;21680;52.400;16.920;2023-05-15T01:30:09;100303.06;;;15.13;50.48
35577;BME280;21680;52.400;16.920;2023-05-15T01:35:32;100279.61;;;14.80;51.48
35577;BME280;21680;52.400;16.920;2023-05-15T01:40:47;100259.00;;;14.65;52.19
35577;BME280;21680;52.400;16.920;2023-05-15T01:43:21;100257.73;;;14.62;52.36
35577;BME280;21680;52.400;16.920;2023-05-15T01:45:48;100250.04;;;14.59;52.29
35577;BME280;21680;52.400;16.920;2023-05-15T01:48:14;100245.77;;;14.55;52.66
35577;BME280;21680;52.400;16.920;2023-05-15T01:50:40;100245.90;;;14.54;52.73
35577;BME280;21680;52.400;16.920;2023-05-15T01:53:08;100244.02;;;14.52;52.85
35577;BME280;21680;52.400;16.920;2023-05-15T01:55:35;100238.68;;;14.51;53.09
35577;BME280;21680;52.400;16.920;2023-05-15T01:58:02;100233.71;;;14.50;53.17
35577;BME280;21680;52.400;16.920;2023-05-15T02:00:29;100227.27;;;14.47;53.38
35577;BME280;21680;52.400;16.920;2023-05-15T02:02:56;100226.38;;;14.44;53.51
35577;BME280;21680;52.400;16.920;2023-05-15T02:05:22;100224.99;;;14.40;53.66
35577;BME280;21680;52.400;16.920;2023-05-15T02:07:48;100225.90;;;14.38;54.07
35577;BME280;21680;52.400;16.920;2023-05-15T02:10:14;100219.70;;;14.36;54.31
35577;BME280;21680;52.400;16.920;2023-05-15T02:12:41;100217.12;;;14.37;54.44
35577;BME280;21680;52.400;16.920;2023-05-15T02:15:08;100210.28;;;14.37;54.58
35577;BME280;21680;52.400;16.920;2023-05-15T02:17:35;100201.09;;;14.38;54.78
35577;BME280;21680;52.400;16.920;2023-05-15T02:20:00;100198.23;;;14.38;54.99
35577;BME280;21680;52.400;16.920;2023-05-15T02:22:26;100199.48;;;14.37;55.03
35577;BME280;21680;52.400;16.920;2023-05-15T02:24:51;100195.01;;;14.37;55.09
35577;BME280;21680;52.400;16.920;2023-05-15T02:27:23;100186.46;;;14.36;55.32
35577;BME280;21680;52.400;16.920;2023-05-15T02:32:48;100182.89;;;14.36;55.51
35577;BME280;21680;52.400;16.920;2023-05-15T02:35:36;100173.66;;;14.34;55.67
35577;BME280;21680;52.400;16.920;2023-05-15T02:38:14;100169.04;;;14.30;55.95
35577;BME280;21680;52.400;16.920;2023-05-15T02:40:40;100162.34;;;14.28;56.14
35577;BME280;21680;52.400;16.920;2023-05-15T02:43:07;100153.62;;;14.27;56.03
35577;BME280;21680;52.400;16.920;2023-05-15T02:45:34;100145.13;;;14.22;56.12
35577;BME280;21680;52.400;16.920;2023-05-15T02:48:01;100141.27;;;14.19;56.37
35577;BME280;21680;52.400;16.920;2023-05-15T02:50:28;100136.61;;;14.18;56.53
35577;BME280;21680;52.400;16.920;2023-05-15T02:53:04;100133.36;;;14.18;56.76
35577;BME280;21680;52.400;16.920;2023-05-15T02:55:30;100130.86;;;14.18;56.90
35577;BME280;21680;52.400;16.920;2023-05-15T02:57:56;100130.98;;;14.19;57.01
35577;BME280;21680;52.400;16.920;2023-05-15T03:00:22;100126.13;;;14.19;56.87
35577;BME280;21680;52.400;16.920;2023-05-15T03:02:47;100140.17;;;14.19;57.03
35577;BME280;21680;52.400;16.920;2023-05-15T03:05:12;100137.99;;;14.19;57.15
35577;BME280;21680;52.400;16.920;2023-05-15T03:07:37;100117.77;;;14.18;57.28
35577;BME280;21680;52.400;16.920;2023-05-15T03:10:03;100112.25;;;14.14;57.39
35577;BME280;21680;52.400;16.920;2023-05-15T03:12:29;100117.64;;;14.14;57.40
35577;BME280;21680;52.400;16.920;2023-05-15T03:14:54;100113.20;;;14.14;57.59
35577;BME280;21680;52.400;16.920;2023-05-15T03:17:20;100108.70;;;14.14;57.45
35577;BME280;21680;52.400;16.920;2023-05-15T03:19:45;100105.54;;;14.12;57.62
35577;BME280;21680;52.400;16.920;2023-05-15T03:22:10;100098.54;;;14.12;57.59
35577;BME280;21680;52.400;16.920;2023-05-15T03:24:36;100091.94;;;14.12;57.75
35577;BME280;21680;52.400;16.920;2023-05-15T03:27:03;100089.30;;;14.11;57.78
35577;BME280;21680;52.400;16.920;2023-05-15T03:29:29;100084.61;;;14.11;57.83
35577;BME280;21680;52.400;16.920;2023-05-15T03:31:54;100080.21;;;14.12;57.82
35577;BME280;21680;52.400;16.920;2023-05-15T03:34:19;100083.88;;;14.14;57.96
35577;BME280;21680;52.400;16.920;2023-05-15T03:36:44;100080.86;;;14.13;57.92
35577;BME280;21680;52.400;16.920;2023-05-15T03:39:09;100073.30;;;14.11;57.97
35577;BME280;21680;52.400;16.920;2023-05-15T03:41:35;100068.44;;;14.09;58.16
35577;BME280;21680;52.400;16.920;2023-05-15T03:44:00;100064.56;;;14.07;58.25
35577;BME280;21680;52.400;16.920;2023-05-15T03:46:26;100064.18;;;14.05;58.40
35577;BME280;21680;52.400;16.920;2023-05-15T03:48:51;100059.21;;;14.02;58.49
35577;BME280;21680;52.400;16.920;2023-05-15T03:51:18;100071.61;;;13.99;58.56
35577;BME280;21680;52.400;16.920;2023-05-15T03:53:43;100075.83;;;13.97;58.75
35577;BME280;21680;52.400;16.920;2023-05-15T03:56:09;100082.89;;;13.99;58.96
35577;BME280;21680;52.400;16.920;2023-05-15T03:58:34;100078.30;;;14.01;59.05
35577;BME280;21680;52.400;16.920;2023-05-15T04:00:59;100086.91;;;14.01;59.06
35577;BME280;21680;52.400;16.920;2023-05-15T04:03:25;100114.27;;;14.00;59.31
35577;BME280;21680;52.400;16.920;2023-05-15T04:05:50;100099.63;;;13.96;59.26
35577;BME280;21680;52.400;16.920;2023-05-15T04:08:16;100103.99;;;13.87;59.69
35577;BME280;21680;52.400;16.920;2023-05-15T04:10:41;100107.27;;;13.81;59.72
35577;BME280;21680;52.400;16.920;2023-05-15T04:13:07;100103.20;;;13.75;60.27
35577;BME280;21680;52.400;16.920;2023-05-15T04:15:32;100100.30;;;13.70;60.25
35577;BME280;21680;52.400;16.920;2023-05-15T04:17:57;100101.25;;;13.66;60.45
35577;BME280;21680;52.400;16.920;2023-05-15T04:20:23;100094.60;;;13.60;60.63
35577;BME280;21680;52.400;16.920;2023-05-15T04:22:49;100094.49;;;13.54;60.69
35577;BME280;21680;52.400;16.920;2023-05-15T04:25:15;100093.20;;;13.46;61.07
35577;BME280;21680;52.400;16.920;2023-05-15T04:27:42;100089.83;;;13.40;61.32
35577;BME280;21680;52.400;16.920;2023-05-15T04:30:09;100085.30;;;13.35;61.62
35577;BME280;21680;52.400;16.920;2023-05-15T04:32:35;100084.92;;;13.36;61.69
35577;BME280;21680;52.400;16.920;2023-05-15T04:35:05;100083.06;;;13.33;61.94
35577;BME280;21680;52.400;16.920;2023-05-15T04:37:33;100082.06;;;13.32;62.25
35577;BME280;21680;52.400;16.920;2023-05-15T04:39:58;100080.98;;;13.32;62.39
35577;BME280;21680;52.400;16.920;2023-05-15T04:42:23;100079.95;;;13.35;62.38
35577;BME280;21680;52.400;16.920;2023-05-15T04:44:49;100074.52;;;13.35;62.55
35577;BME280;21680;52.400;16.920;2023-05-15T04:47:15;100070.70;;;13.36;62.82
35577;BME280;21680;52.400;16.920;2023-05-15T04:49:41;100059.25;;;13.36;62.89
35577;BME280;21680;52.400;16.920;2023-05-15T04:52:06;100062.77;;;13.33;63.03
35577;BME280;21680;52.400;16.920;2023-05-15T04:54:32;100058.73;;;13.29;63.17
35577;BME280;21680;52.400;16.920;2023-05-15T04:56:57;100055.72;;;13.20;63.37
35577;BME280;21680;52.400;16.920;2023-05-15T04:59:22;100050.25;;;13.13;63.74
35577;BME280;21680;52.400;16.920;2023-05-15T05:01:50;100045.85;;;13.06;63.90
35577;BME280;21680;52.400;16.920;2023-05-15T05:04:15;100046.07;;;13.00;64.29
35577;BME280;21680;52.400;16.920;2023-05-15T05:06:43;100044.66;;;12.94;64.55
35577;BME280;21680;52.400;16.920;2023-05-15T05:09:08;100044.16;;;12.91;64.84
35577;BME280;21680;52.400;16.920;2023-05-15T05:11:34;100041.68;;;12.90;65.06
35577;BME280;21680;52.400;16.920;2023-05-15T05:14:00;100032.27;;;12.89;65.31
35577;BME280;21680;52.400;16.920;2023-05-15T05:16:25;100030.98;;;12.89;65.56
35577;BME280;21680;52.400;16.920;2023-05-15T05:18:51;100027.33;;;12.93;65.70
35577;BME280;21680;52.400;16.920;2023-05-15T05:21:17;100022.52;;;12.98;65.70
35577;BME280;21680;52.400;16.920;2023-05-15T05:23:42;100022.88;;;13.00;65.79
35577;BME280;21680;52.400;16.920;2023-05-15T05:26:07;100018.58;;;13.00;65.89
35577;BME280;21680;52.400;16.920;2023-05-15T05:28:33;100018.13;;;13.02;66.10
35577;BME280;21680;52.400;16.920;2023-05-15T05:30:58;100013.55;;;13.06;66.14
35577;BME280;21680;52.400;16.920;2023-05-15T05:33:24;100010.48;;;13.09;66.43
35577;BME280;21680;52.400;16.920;2023-05-15T05:35:50;100010.89;;;13.11;66.73
35577;BME280;21680;52.400;16.920;2023-05-15T05:38:16;100007.14;;;13.17;66.71
35577;BME280;21680;52.400;16.920;2023-05-15T05:40:42;100004.26;;;13.17;66.79
35577;BME280;21680;52.400;16.920;2023-05-15T05:43:07;100003.22;;;13.19;66.94
35577;BME280;21680;52.400;16.920;2023-05-15T05:45:32;100002.42;;;13.23;67.12
35577;BME280;21680;52.400;16.920;2023-05-15T05:47:58;99998.45;;;13.24;67.15
35577;BME280;21680;52.400;16.920;2023-05-15T05:50:23;99995.67;;;13.22;67.35
35577;BME280;21680;52.400;16.920;2023-05-15T05:52:49;99992.48;;;13.21;67.62
35577;BME280;21680;52.400;16.920;2023-05-15T05:55:15;99993.84;;;13.23;67.74
35577;BME280;21680;52.400;16.920;2023-05-15T05:57:40;99987.65;;;13.21;67.97
35577;BME280;21680;52.400;16.920;2023-05-15T06:00:06;99980.52;;;13.21;68.20
35577;BME280;21680;52.400;16.920;2023-05-15T06:02:38;99975.12;;;13.21;68.56
35577;BME280;21680;52.400;16.920;2023-05-15T06:05:05;99973.41;;;13.25;68.58
35577;BME280;21680;52.400;16.920;2023-05-15T06:07:33;99966.84;;;13.27;68.67
35577;BME280;21680;52.400;16.920;2023-05-15T06:09:59;99964.58;;;13.29;68.82
35577;BME280;21680;52.400;16.920;2023-05-15T06:12:24;99959.56;;;13.31;68.91
35577;BME280;21680;52.400;16.920;2023-05-15T06:14:52;99960.38;;;13.36;69.08
35577;BME280;21680;52.400;16.920;2023-05-15T06:17:17;99957.52;;;13.43;69.27
35577;BME280;21680;52.400;16.920;2023-05-15T06:19:43;99954.33;;;13.48;69.16
35577;BME280;21680;52.400;16.920;2023-05-15T06:22:08;99954.83;;;13.51;69.61
35577;BME280;21680;52.400;16.920;2023-05-15T06:24:33;99950.73;;;13.59;69.61
35577;BME280;21680;52.400;16.920;2023-05-15T06:26:58;99946.22;;;13.62;69.63
35577;BME280;21680;52.400;16.920;2023-05-15T06:29:25;99942.46;;;13.64;69.81
35577;BME280;21680;52.400;16.920;2023-05-15T06:31:50;99941.41;;;13.67;69.87
35577;BME280;21680;52.400;16.920;2023-05-15T06:34:15;99939.23;;;13.67;70.23
35577;BME280;21680;52.400;16.920;2023-05-15T06:36:41;99931.18;;;13.67;70.41
35577;BME280;21680;52.400;16.920;2023-05-15T06:39:06;99933.62;;;13.68;70.68
35577;BME280;21680;52.400;16.920;2023-05-15T06:41:35;99932.39;;;13.75;70.70
35577;BME280;21680;52.400;16.920;2023-05-15T06:44:02;99932.88;;;13.76;70.58
35577;BME280;21680;52.400;16.920;2023-05-15T06:46:27;99924.17;;;13.72;70.64
35577;BME280;21680;52.400;16.920;2023-05-15T06:48:53;99922.60;;;13.66;70.77
35577;BME280;21680;52.400;16.920;2023-05-15T06:51:18;99923.90;;;13.63;71.02
35577;BME280;21680;52.400;16.920;2023-05-15T06:53:43;99922.59;;;13.58;71.02
35577;BME280;21680;52.400;16.920;2023-05-15T06:56:08;99922.63;;;13.55;71.33
35577;BME280;21680;52.400;16.920;2023-05-15T06:58:34;99923.93;;;13.52;71.56
35577;BME280;21680;52.400;16.920;2023-05-15T07:01:00;99917.28;;;13.46;71.68
35577;BME280;21680;52.400;16.920;2023-05-15T07:03:27;99915.85;;;13.39;72.03
35577;BME280;21680;52.400;16.920;2023-05-15T07:05:53;99914.09;;;13.32;72.37
35577;BME280;21680;52.400;16.920;2023-05-15T07:08:18;99913.02;;;13.29;72.59
35577;BME280;21680;52.400;16.920;2023-05-15T07:10:43;99912.55;;;13.31;72.75
35577;BME280;21680;52.400;16.920;2023-05-15T07:13:09;99906.50;;;13.36;72.94
35577;BME280;21680;52.400;16.920;2023-05-15T07:15:34;99900.98;;;13.38;72.93
35577;BME280;21680;52.400;16.920;2023-05-15T07:17:59;99899.91;;;13.35;73.23
35577;BME280;21680;52.400;16.920;2023-05-15T07:20:25;99898.39;;;13.31;73.39
35577;BME280;21680;52.400;16.920;2023-05-15T07:22:50;99894.54;;;13.27;73.47
35577;BME280;21680;52.400;16.920;2023-05-15T07:25:16;99891.19;;;13.24;73.55
35577;BME280;21680;52.400;16.920;2023-05-15T07:27:41;99892.17;;;13.19;73.81
35577;BME280;21680;52.400;16.920;2023-05-15T07:30:07;99890.11;;;13.15;73.89
35577;BME280;21680;52.400;16.920;2023-05-15T07:32:36;99889.52;;;13.13;74.10
35577;BME280;21680;52.400;16.920;2023-05-15T07:35:02;99885.82;;;13.09;74.20
35577;BME280;21680;52.400;16.920;2023-05-15T07:37:29;99885.30;;;13.06;74.52
35577;BME280;21680;52.400;16.920;2023-05-15T07:39:54;99878.20;;;13.03;74.71
35577;BME280;21680;52.400;16.920;2023-05-15T07:42:20;99879.38;;;12.96;74.87
35577;BME280;21680;52.400;16.920;2023-05-15T07:44:46;99881.85;;;12.94;75.06
35577;BME280;21680;52.400;16.920;2023-05-15T07:47:11;99880.74;;;12.94;75.11
35577;BME280;21680;52.400;16.920;2023-05-15T07:49:36;99878.11;;;12.93;75.11
35577;BME280;21680;52.400;16.920;2023-05-15T07:52:01;99877.16;;;12.92;75.24
35577;BME280;21680;52.400;16.920;2023-05-15T07:54:26;99877.67;;;12.84;75.40
35577;BME280;21680;52.400;16.920;2023-05-15T07:56:52;99876.51;;;12.80;75.48
35577;BME280;21680;52.400;16.920;2023-05-15T07:59:18;99875.99;;;12.76;75.58
35577;BME280;21680;52.400;16.920;2023-05-15T08:01:43;99868.63;;;12.71;75.79
35577;BME280;21680;52.400;16.920;2023-05-15T08:04:08;99869.90;;;12.71;76.09
35577;BME280;21680;52.400;16.920;2023-05-15T08:06:35;99859.19;;;12.71;76.25
35577;BME280;21680;52.400;16.920;2023-05-15T08:09:02;99853.32;;;12.66;76.61
35577;BME280;21680;52.400;16.920;2023-05-15T08:11:28;99858.14;;;12.64;76.74
35577;BME280;21680;52.400;16.920;2023-05-15T08:13:53;99862.14;;;12.63;76.97
35577;BME280;21680;52.400;16.920;2023-05-15T08:16:19;99863.55;;;12.66;77.21
35577;BME280;21680;52.400;16.920;2023-05-15T08:18:44;99859.71;;;12.71;77.34
35577;BME280;21680;52.400;16.920;2023-05-15T08:21:09;99857.08;;;12.73;77.63
35577;BME280;21680;52.400;16.920;2023-05-15T08:23:35;99856.54;;;12.78;77.68
35577;BME280;21680;52.400;16.920;2023-05-15T08:26:00;99850.63;;;12.78;77.68
35577;BME280;21680;52.400;16.920;2023-05-15T08:28:25;99844.69;;;12.78;77.77
35577;BME280;21680;52.400;16.920;2023-05-15T08:30:51;99841.64;;;12.75;77.91
35577;BME280;21680;52.400;16.920;2023-05-15T08:33:16;99838.02;;;12.73;78.22
35577;BME280;21680;52.400;16.920;2023-05-15T08:35:41;99832.03;;;12.77;78.46
35577;BME280;21680;52.400;16.920;2023-05-15T08:38:08;99831.56;;;12.79;78.54
35577;BME280;21680;52.400;16.920;2023-05-15T08:40:33;99827.98;;;12.76;78.46
35577;BME280;21680;52.400;16.920;2023-05-15T08:43:05;99825.09;;;12.74;78.60
35577;BME280;21680;52.400;16.920;2023-05-15T08:45:34;99819.68;;;12.68;78.98
35577;BME280;21680;52.400;16.920;2023-05-15T08:48:00;99816.82;;;12.63;79.30
35577;BME280;21680;52.400;16.920;2023-05-15T08:50:26;99814.00;;;12.62;79.63
35577;BME280;21680;52.400;16.920;2023-05-15T08:52:54;99811.80;;;12.60;79.82
35577;BME280;21680;52.400;16.920;2023-05-15T08:55:22;99812.48;;;12.58;80.01
35577;BME280;21680;52.400;16.920;2023-05-15T08:57:49;99814.66;;;12.55;80.19
35577;BME280;21680;52.400;16.920;2023-05-15T09:00:14;99812.95;;;12.53;80.37
35577;BME280;21680;52.400;16.920;2023-05-15T09:02:42;99806.73;;;12.53;80.59
35577;BME280;21680;52.400;16.920;2023-05-15T09:05:08;99806.08;;;12.52;80.71
35577;BME280;21680;52.400;16.920;2023-05-15T09:07:34;99796.95;;;12.49;81.00
35577;BME280;21680;52.400;16.920;2023-05-15T09:10:02;99796.08;;;12.51;81.18
35577;BME280;21680;52.400;16.920;2023-05-15T09:12:31;99796.66;;;12.48;81.27
35577;BME280;21680;52.400;16.920;2023-05-15T09:15:08;99796.27;;;12.45;81.66
35577;BME280;21680;52.400;16.920;2023-05-15T09:17:34;99791.04;;;12.49;81.92
35577;BME280;21680;52.400;16.920;2023-05-15T09:20:01;99788.96;;;12.50;82.02
35577;BME280;21680;52.400;16.920;2023-05-15T09:22:26;99781.25;;;12.51;82.46
35577;BME280;21680;52.400;16.920;2023-05-15T09:24:57;99783.03;;;12.50;82.75
35577;BME280;21680;52.400;16.920;2023-05-15T09:27:22;99783.41;;;12.50;82.81
35577;BME280;21680;52.400;16.920;2023-05-15T09:29:48;99778.95;;;12.50;83.21
35577;BME280;21680;52.400;16.920;2023-05-15T09:32:17;99774.99;;;12.53;83.38
35577;BME280;21680;52.400;16.920;2023-05-15T09:34:43;99778.14;;;12.52;83.60
35577;BME280;21680;52.400;16.920;2023-05-15T09:37:11;99774.50;;;12.52;83.65
35577;BME280;21680;52.400;16.920;2023-05-15T09:39:43;99772.23;;;12.54;83.90
35577;BME280;21680;52.400;16.920;2023-05-15T09:42:10;99769.72;;;12.51;84.33
35577;BME280;21680;52.400;16.920;2023-05-15T09:44:43;99767.04;;;12.49;84.46
35577;BME280;21680;52.400;16.920;2023-05-15T09:47:10;99765.97;;;12.54;84.59
35577;BME280;21680;52.400;16.920;2023-05-15T09:49:42;99767.31;;;12.58;84.48
35577;BME280;21680;52.400;16.920;2023-05-15T09:52:09;99765.20;;;12.60;84.65
35577;BME280;21680;52.400;16.920;2023-05-15T09:54:36;99766.68;;;12.62;84.75
35577;BME280;21680;52.400;16.920;2023-05-15T09:57:10;99768.43;;;12.65;84.92
35577;BME280;21680;52.400;16.920;2023-05-15T09:59:42;99763.73;;;12.72;84.98
35577;BME280;21680;52.400;16.920;2023-05-15T10:02:12;99758.00;;;12.80;85.09
35577;BME280;21680;52.400;16.920;2023-05-15T10:04:37;99756.86;;;12.83;85.17
35577;BME280;21680;52.400;16.920;2023-05-15T10:07:06;99758.63;;;12.81;85.30
35577;BME280;21680;52.400;16.920;2023-05-15T10:09:32;99758.53;;;12.85;85.36
35577;BME280;21680;52.400;16.920;2023-05-15T10:11:58;99752.84;;;12.87;85.30
35577;BME280;21680;52.400;16.920;2023-05-15T10:14:25;99752.08;;;12.93;85.54
35577;BME280;21680;52.400;16.920;2023-05-15T10:16:51;99744.25;;;13.02;85.57
35577;BME280;21680;52.400;16.920;2023-05-15T10:19:18;99743.52;;;13.02;85.46
35577;BME280;21680;52.400;16.920;2023-05-15T10:21:46;99743.16;;;13.02;85.60
35577;BME280;21680;52.400;16.920;2023-05-15T10:24:15;99739.42;;;12.99;85.66
35577;BME280;21680;52.400;16.920;2023-05-15T10:26:42;99738.60;;;12.98;85.69
35577;BME280;21680;52.400;16.920;2023-05-15T10:29:12;99740.66;;;12.95;85.74
35577;BME280;21680;52.400;16.920;2023-05-15T10:31:39;99741.72;;;12.97;85.90
35577;BME280;21680;52.400;16.920;2023-05-15T10:34:06;99739.86;;;13.04;85.91
35577;BME280;21680;52.400;16.920;2023-05-15T10:36:32;99741.44;;;13.09;85.98
35577;BME280;21680;52.400;16.920;2023-05-15T10:39:03;99737.73;;;13.11;85.91
35577;BME280;21680;52.400;16.920;2023-05-15T10:41:29;99736.92;;;13.12;85.96
35577;BME280;21680;52.400;16.920;2023-05-15T10:43:58;99732.11;;;13.14;86.10
35577;BME280;21680;52.400;16.920;2023-05-15T10:46:25;99733.91;;;13.12;85.96
35577;BME280;21680;52.400;16.920;2023-05-15T10:48:51;99731.48;;;13.11;86.05
35577;BME280;21680;52.400;16.920;2023-05-15T10:51:18;99726.80;;;13.03;86.01
35577;BME280;21680;52.400;16.920;2023-05-15T10:53:48;99728.85;;;13.02;86.24
35577;BME280;21680;52.400;16.920;2023-05-15T10:56:14;99726.36;;;13.04;86.28
35577;BME280;21680;52.400;16.920;2023-05-15T10:58:50;99720.69;;;13.11;86.30
35577;BME280;21680;52.400;16.920;2023-05-15T11:01:34;99722.52;;;13.16;86.18
35577;BME280;21680;52.400;16.920;2023-05-15T11:04:14;99718.48;;;13.17;85.99
35577;BME280;21680;52.400;16.920;2023-05-15T11:06:43;99713.92;;;13.19;86.21
35577;BME280;21680;52.400;16.920;2023-05-15T11:14:25;99710.98;;;13.24;86.12
35577;BME280;21680;52.400;16.920;2023-05-15T11:22:19;99707.47;;;13.18;85.74
35577;BME280;21680;52.400;16.920;2023-05-15T11:24:58;99704.05;;;13.16;85.83
35577;BME280;21680;52.400;16.920;2023-05-15T11:30:15;99698.85;;;13.16;85.87
35577;BME280;21680;52.400;16.920;2023-05-15T11:32:54;99701.61;;;13.18;85.97
35577;BME280;21680;52.400;16.920;2023-05-15T11:35:31;99693.80;;;13.21;86.06
35577;BME280;21680;52.400;16.920;2023-05-15T11:38:00;99688.77;;;13.24;85.96
35577;BME280;21680;52.400;16.920;2023-05-15T11:40:31;99686.14;;;13.26;85.96
35577;BME280;21680;52.400;16.920;2023-05-15T11:43:04;99682.91;;;13.31;86.10
35577;BME280;21680;52.400;16.920;2023-05-15T11:45:33;99680.15;;;13.42;86.22
35577;BME280;21680;52.400;16.920;2023-05-15T11:48:01;99677.48;;;13.52;86.08
35577;BME280;21680;52.400;16.920;2023-05-15T11:50:29;99674.91;;;13.55;85.88
35577;BME280;21680;52.400;16.920;2023-05-15T11:52:55;99676.23;;;13.57;85.83
35577;BME280;21680;52.400;16.920;2023-05-15T11:55:30;99671.09;;;13.56;85.87
35577;BME280;21680;52.400;16.920;2023-05-15T11:57:56;99670.79;;;13.60;86.01
35577;BME280;21680;52.400;16.920;2023-05-15T12:00:21;99667.80;;;13.62;86.10
35577;BME280;21680;52.400;16.920;2023-05-15T12:02:46;99672.96;;;13.64;86.03
35577;BME280;21680;52.400;16.920;2023-05-15T12:05:12;99670.74;;;13.61;86.02
35577;BME280;21680;52.400;16.920;2023-05-15T12:07:40;99666.27;;;13.63;86.24
35577;BME280;21680;52.400;16.920;2023-05-15T12:10:11;99668.42;;;13.63;85.97
35577;BME280;21680;52.400;16.920;2023-05-15T12:12:43;99662.11;;;13.61;86.21
35577;BME280;21680;52.400;16.920;2023-05-15T12:15:15;99662.98;;;13.64;86.17
35577;BME280;21680;52.400;16.920;2023-05-15T12:17:42;99658.70;;;13.63;86.17
35577;BME280;21680;52.400;16.920;2023-05-15T12:20:16;99656.30;;;13.67;86.24
35577;BME280;21680;52.400;16.920;2023-05-15T12:22:42;99658.61;;;13.67;86.18
35577;BME280;21680;52.400;16.920;2023-05-15T12:25:09;99653.16;;;13.68;86.11
35577;BME280;21680;52.400;16.920;2023-05-15T12:27:37;99652.79;;;13.68;86.12
35577;BME280;21680;52.400;16.920;2023-05-15T12:30:03;99651.05;;;13.70;86.27
35577;BME280;21680;52.400;16.920;2023-05-15T12:32:30;99648.08;;;13.72;86.24
35577;BME280;21680;52.400;16.920;2023-05-15T12:34:56;99647.81;;;13.73;86.12
35577;BME280;21680;52.400;16.920;2023-05-15T12:37:21;99645.48;;;13.70;86.01
35577;BME280;21680;52.400;16.920;2023-05-15T12:39:54;99646.12;;;13.69;86.13
35577;BME280;21680;52.400;16.920;2023-05-15T12:42:20;99640.08;;;13.73;86.36
35577;BME280;21680;52.400;16.920;2023-05-15T12:44:49;99637.18;;;13.76;86.39
35577;BME280;21680;52.400;16.920;2023-05-15T12:47:23;99635.35;;;13.76;86.18
35577;BME280;21680;52.400;16.920;2023-05-15T12:49:49;99631.73;;;13.67;85.98
35577;BME280;21680;52.400;16.920;2023-05-15T12:52:14;99626.69;;;13.62;86.25
35577;BME280;21680;52.400;16.920;2023-05-15T12:54:40;99626.90;;;13.59;86.07
35577;BME280;21680;52.400;16.920;2023-05-15T12:57:10;99625.84;;;13.59;86.31
35577;BME280;21680;52.400;16.920;2023-05-15T12:59:37;99624.41;;;13.61;86.43
35577;BME280;21680;52.400;16.920;2023-05-15T13:02:04;99623.55;;;13.60;86.25
35577;BME280;21680;52.400;16.920;2023-05-15T13:04:33;99621.91;;;13.56;86.14
35577;BME280;21680;52.400;16.920;2023-05-15T13:06:58;99618.16;;;13.53;86.43
35577;BME280;21680;52.400;16.920;2023-05-15T13:09:24;99614.23;;;13.53;86.50